Amherst, Virginia
Current Conditions -  °F | °C
As of 5:54 AM on Monday 22 Dec 2014 (Local Time) from KLYH Reporting Station
Overcast Overcast  
Wind Chill: 25°   Ceiling: 3600
Heat Index: 34°   Visibility: 10mi
Dew Point: 28°   Wind: 12mph
Humidity: 79%   Direction: 30°NNE
Pressure: 30.2"   Gusts: NA
Location:  37.59°N, 79.05°W
Report Text: KLYH 221054Z AUTO 03010KT 10SM SCT029 BKN036 OVC065 01/M02 A3020 RMK AO2 SLP234 T00111022
Loading
Personal Weather Stations






























Interactive Weather Map New forecast layout! Learn more

10-Day Weather Forecast

Advertisements
Track Severe Weather on mobile